TimeCST,TemperatureF,Dew PointF,Humidity,Sea Level PressureIn,VisibilityMPH,Wind Direction,Wind SpeedMPH,Gust SpeedMPH,PrecipitationIn,Events,Conditions,WindDirDegrees,DateUTC
12:53 AM,35.1,23.0,61,30.17,10.0,NNW,8.1,-,N/A,,Clear,330,2012-12-04 06:53:00
1:53 AM,33.1,21.0,61,30.19,10.0,NNW,9.2,-,N/A,,Clear,330,2012-12-04 07:53:00
2:53 AM,34.0,21.0,59,30.20,10.0,NNW,11.5,-,N/A,,Clear,330,2012-12-04 08:53:00
3:53 AM,30.0,19.9,66,30.22,10.0,NW,8.1,-,N/A,,Clear,310,2012-12-04 09:53:00
4:53 AM,27.0,19.0,72,30.25,10.0,West,5.8,-,N/A,,Clear,260,2012-12-04 10:53:00
5:53 AM,23.0,17.1,78,30.28,10.0,WSW,6.9,-,N/A,,Clear,250,2012-12-04 11:53:00
6:53 AM,24.1,17.1,75,30.32,10.0,NNW,8.1,-,N/A,,Clear,330,2012-12-04 12:53:00
7:53 AM,25.0,17.1,72,30.33,10.0,West,5.8,-,N/A,,Clear,270,2012-12-04 13:53:00
8:53 AM,28.9,21.0,72,30.35,10.0,WSW,3.5,-,N/A,,Clear,240,2012-12-04 14:53:00
9:53 AM,39.9,23.0,51,30.36,9.0,WSW,6.9,-,N/A,,Clear,240,2012-12-04 15:53:00
10:53 AM,51.1,18.0,27,30.35,10.0,WNW,11.5,-,N/A,,Clear,290,2012-12-04 16:53:00
11:53 AM,54.0,17.1,23,30.33,10.0,WNW,9.2,-,N/A,,Clear,290,2012-12-04 17:53:00
12:53 PM,57.0,18.0,22,30.31,10.0,NW,5.8,-,N/A,,Clear,310,2012-12-04 18:53:00
1:53 PM,59.0,18.0,20,30.30,10.0,WSW,5.8,-,N/A,,Clear,240,2012-12-04 19:53:00
2:53 PM,59.0,17.1,20,30.28,10.0,West,5.8,-,N/A,,Clear,260,2012-12-04 20:53:00
3:53 PM,60.1,17.1,19,30.28,10.0,WSW,5.8,-,N/A,,Clear,240,2012-12-04 21:53:00
4:53 PM,55.9,17.1,22,30.28,10.0,South,4.6,-,N/A,,Clear,180,2012-12-04 22:53:00
5:53 PM,48.9,17.1,28,30.30,10.0,South,6.9,-,N/A,,Clear,190,2012-12-04 23:53:00
6:53 PM,43.0,17.1,35,30.30,10.0,SSW,8.1,-,N/A,,Clear,210,2012-12-05 00:53:00
7:53 PM,39.9,16.0,38,30.32,10.0,South,8.1,-,N/A,,Clear,190,2012-12-05 01:53:00
8:53 PM,37.9,16.0,41,30.30,10.0,South,8.1,-,N/A,,Clear,170,2012-12-05 02:53:00
9:53 PM,36.0,17.1,46,30.31,10.0,South,5.8,-,N/A,,Clear,180,2012-12-05 03:53:00
10:53 PM,36.0,18.0,48,30.30,10.0,South,9.2,-,N/A,,Clear,190,2012-12-05 04:53:00
11:53 PM,35.1,18.0,50,30.28,10.0,South,11.5,-,N/A,,Clear,180,2012-12-05 05:53:00